Time;durP1;ratioP1;P1;durP2;ratioP2;P2;SDS_P1;SDS_P2;PMS_P1;PMS_P2;Temp;Humidity;BMP_temperature;BMP_pressure;BME280_temperature;BME280_humidity;BME280_pressure;Samples;Min_cycle;Max_cycle;Signal;HPM_P1;HPM_P2
2023/11/20 00:00:13;;;;;;;8.57;6.78;;;14.00;65.20;;;;;;345662;28;908;-56
2023/11/20 00:00:24;;;;;;;9.57;7.18;;;13.90;65.20;;;;;;345544;28;1475;-57
2023/11/20 00:00:34;;;;;;;10.02;7.40;;;14.00;65.20;;;;;;345652;28;893;-57
2023/11/20 00:00:45;;;;;;;9.13;7.27;;;13.90;65.20;;;;;;345686;28;834;-57
2023/11/20 00:00:56;;;;;;;8.40;6.93;;;13.90;65.20;;;;;;345609;28;988;-57
2023/11/20 00:01:07;;;;;;;7.85;6.45;;;14.00;65.20;;;;;;345641;28;1127;-56
2023/11/20 00:01:24;;;;;;;8.88;6.72;;;13.90;65.20;;;;;;345682;28;1008;-57
2023/11/20 00:01:35;;;;;;;8.95;6.85;;;14.00;65.20;;;;;;345629;28;1224;-57
2023/11/20 00:01:47;;;;;;;8.07;6.72;;;13.90;65.20;;;;;;345501;28;1655;-58
2023/11/20 00:01:58;;;;;;;7.97;6.63;;;13.90;65.20;;;;;;345627;28;1079;-56
2023/11/20 00:02:09;;;;;;;7.82;6.80;;;13.90;65.20;;;;;;345613;28;1090;-57
2023/11/20 00:02:21;;;;;;;8.38;6.95;;;13.90;65.20;;;;;;345574;28;1051;-56
2023/11/20 00:02:31;;;;;;;8.05;6.78;;;13.90;65.20;;;;;;345699;28;912;-57
2023/11/20 00:02:42;;;;;;;7.85;6.65;;;13.90;65.20;;;;;;345654;28;814;-56
2023/11/20 00:02:53;;;;;;;7.55;6.75;;;13.90;65.20;;;;;;345482;28;1441;-58
2023/11/20 00:03:04;;;;;;;7.57;6.77;;;13.90;65.20;;;;;;345578;28;1135;-57
2023/11/20 00:03:14;;;;;;;8.60;7.20;;;13.90;65.30;;;;;;345616;28;1588;-57
2023/11/20 00:03:25;;;;;;;10.02;7.57;;;14.00;65.30;;;;;;345576;28;1015;-57
2023/11/20 00:03:36;;;;;;;13.18;7.78;;;13.90;65.20;;;;;;345641;28;1015;-58
2023/11/20 00:03:47;;;;;;;13.73;7.63;;;13.90;65.20;;;;;;345629;28;916;-58
2023/11/20 00:03:57;;;;;;;13.73;7.75;;;13.90;65.20;;;;;;345561;28;1017;-56
2023/11/20 00:04:08;;;;;;;9.90;7.20;;;13.90;65.20;;;;;;345618;28;1051;-56
2023/11/20 00:04:19;;;;;;;8.60;6.95;;;13.90;65.20;;;;;;345651;28;1023;-57
2023/11/20 00:04:29;;;;;;;8.25;6.80;;;13.90;65.30;;;;;;345608;28;1014;-59
2023/11/20 00:04:40;;;;;;;8.07;6.90;;;13.90;65.30;;;;;;345658;28;1079;-57
2023/11/20 00:04:52;;;;;;;8.48;7.15;;;13.90;65.30;;;;;;345552;28;1441;-58
2023/11/20 00:05:03;;;;;;;8.02;7.00;;;13.90;65.30;;;;;;345594;28;1028;-57
2023/11/20 00:05:14;;;;;;;7.97;7.05;;;13.90;65.30;;;;;;345707;28;845;-57
2023/11/20 00:05:25;;;;;;;8.57;7.10;;;13.90;65.30;;;;;;345683;28;912;-58
2023/11/20 00:05:35;;;;;;;9.00;7.13;;;13.90;65.30;;;;;;345585;28;1044;-58
2023/11/20 00:05:46;;;;;;;9.05;7.18;;;13.90;65.30;;;;;;345635;28;869;-57
2023/11/20 00:05:57;;;;;;;9.07;7.10;;;13.90;65.30;;;;;;345601;28;1008;-58
2023/11/20 00:06:08;;;;;;;10.15;7.57;;;13.90;65.30;;;;;;345523;28;1236;-57
2023/11/20 00:06:19;;;;;;;10.80;7.45;;;13.90;65.30;;;;;;345566;28;1088;-57
2023/11/20 00:06:31;;;;;;;10.20;7.50;;;13.90;65.30;;;;;;345683;28;892;-59
2023/11/20 00:06:41;;;;;;;8.93;7.10;;;13.90;65.30;;;;;;345560;28;1213;-58
2023/11/20 00:06:52;;;;;;;8.85;7.15;;;13.90;65.30;;;;;;345578;28;1142;-57
2023/11/20 00:07:05;;;;;;;9.38;7.05;;;13.90;65.30;;;;;;345676;28;1054;-57
2023/11/20 00:07:16;;;;;;;9.18;7.15;;;13.90;65.30;;;;;;345611;28;1025;-58
2023/11/20 00:07:26;;;;;;;10.65;7.30;;;13.90;65.30;;;;;;345618;28;1031;-57
2023/11/20 00:07:37;;;;;;;10.63;7.47;;;13.90;65.30;;;;;;345541;28;949;-56
2023/11/20 00:07:48;;;;;;;9.02;7.45;;;13.80;65.30;;;;;;345563;28;1143;-57
2023/11/20 00:07:58;;;;;;;8.90;7.60;;;13.90;65.40;;;;;;345651;28;814;-57
2023/11/20 00:08:09;;;;;;;8.68;7.70;;;13.90;65.40;;;;;;345563;28;1028;-56
2023/11/20 00:08:20;;;;;;;8.52;7.40;;;13.80;65.40;;;;;;345612;28;1020;-58
2023/11/20 00:08:30;;;;;;;8.80;6.82;;;13.90;65.30;;;;;;345662;28;885;-58
2023/11/20 00:08:41;;;;;;;8.83;6.73;;;13.80;65.40;;;;;;345571;28;1829;-58
2023/11/20 00:08:52;;;;;;;9.60;7.07;;;13.80;65.40;;;;;;345661;28;843;-57
2023/11/20 00:09:03;;;;;;;9.30;7.07;;;13.90;65.30;;;;;;345655;28;987;-58
2023/11/20 00:09:14;;;;;;;9.25;6.88;;;13.80;65.30;;;;;;345526;28;1154;-57
2023/11/20 00:09:24;;;;;;;9.10;6.72;;;13.90;65.40;;;;;;345572;28;1012;-57
2023/11/20 00:09:35;;;;;;;9.00;6.80;;;13.90;65.50;;;;;;345621;28;842;-57
2023/11/20 00:09:46;;;;;;;9.20;7.23;;;13.90;65.50;;;;;;345522;28;1079;-57
2023/11/20 00:09:56;;;;;;;9.40;7.38;;;13.80;65.50;;;;;;345561;28;1528;-57
2023/11/20 00:10:07;;;;;;;8.68;7.30;;;13.90;65.50;;;;;;345584;28;1263;-56
2023/11/20 00:10:18;;;;;;;8.60;7.07;;;13.80;65.40;;;;;;345520;28;1091;-57
2023/11/20 00:10:32;;;;;;;8.63;7.10;;;13.90;65.40;;;;;;345674;28;1023;-57
2023/11/20 00:10:42;;;;;;;8.13;6.97;;;13.80;65.40;;;;;;345608;28;1077;-57
2023/11/20 00:10:53;;;;;;;8.60;6.72;;;13.80;65.30;;;;;;345568;28;964;-58
2023/11/20 00:11:04;;;;;;;9.15;6.60;;;13.80;65.30;;;;;;345610;28;1916;-57
2023/11/20 00:11:15;;;;;;;9.53;6.73;;;13.80;65.30;;;;;;345594;28;1020;-59
2023/11/20 00:11:27;;;;;;;9.45;6.88;;;13.80;65.30;;;;;;345687;28;935;-58
2023/11/20 00:11:37;;;;;;;8.80;6.65;;;13.80;65.40;;;;;;345575;28;1016;-58
2023/11/20 00:11:48;;;;;;;8.02;6.70;;;13.80;65.30;;;;;;345606;28;1008;-57
2023/11/20 00:11:59;;;;;;;7.85;6.90;;;13.80;65.40;;;;;;345637;28;1074;-57
2023/11/20 00:12:10;;;;;;;8.23;6.95;;;13.80;65.40;;;;;;345698;28;813;-56
2023/11/20 00:12:21;;;;;;;9.23;6.83;;;13.80;65.40;;;;;;345511;28;1197;-58
2023/11/20 00:12:32;;;;;;;8.95;6.68;;;13.80;65.40;;;;;;345671;28;930;-57
2023/11/20 00:12:42;;;;;;;9.00;6.57;;;13.90;65.40;;;;;;345663;28;919;-56
2023/11/20 00:12:53;;;;;;;9.07;6.57;;;13.80;65.40;;;;;;345636;28;956;-58
2023/11/20 00:13:06;;;;;;;9.73;6.78;;;13.80;65.40;;;;;;345627;28;984;-57
2023/11/20 00:13:16;;;;;;;9.65;6.95;;;13.80;65.30;;;;;;345633;28;1027;-57
2023/11/20 00:13:27;;;;;;;10.13;6.88;;;13.80;65.20;;;;;;345583;28;1865;-55
2023/11/20 00:13:38;;;;;;;10.43;6.90;;;13.80;65.30;;;;;;345638;28;857;-59
2023/11/20 00:13:49;;;;;;;9.75;7.03;;;13.80;65.20;;;;;;345572;28;1165;-56
2023/11/20 00:13:59;;;;;;;10.05;7.18;;;13.80;65.30;;;;;;345679;28;1062;-59
2023/11/20 00:14:10;;;;;;;9.73;6.93;;;13.80;65.30;;;;;;345613;28;1083;-58
2023/11/20 00:14:21;;;;;;;9.33;6.83;;;13.80;65.30;;;;;;345583;28;1158;-58
2023/11/20 00:14:32;;;;;;;9.70;6.87;;;13.80;65.30;;;;;;345593;28;953;-58
2023/11/20 00:14:42;;;;;;;9.07;6.88;;;13.80;65.30;;;;;;345643;28;869;-56
2023/11/20 00:14:53;;;;;;;8.45;6.78;;;13.80;65.30;;;;;;345614;28;991;-57
2023/11/20 00:15:04;;;;;;;8.03;6.53;;;13.80;65.30;;;;;;345549;28;1167;-56
2023/11/20 00:15:15;;;;;;;8.85;6.80;;;13.80;65.30;;;;;;345541;28;991;-57
2023/11/20 00:15:26;;;;;;;9.18;7.00;;;13.80;65.30;;;;;;345689;28;1163;-57
2023/11/20 00:15:36;;;;;;;9.90;7.13;;;13.80;65.30;;;;;;345654;28;1852;-57
2023/11/20 00:15:47;;;;;;;9.80;6.88;;;13.80;65.30;;;;;;345680;28;950;-56
2023/11/20 00:15:58;;;;;;;9.50;6.90;;;13.80;65.40;;;;;;345550;28;1087;-60
2023/11/20 00:16:11;;;;;;;9.38;6.97;;;13.80;65.40;;;;;;345650;28;1764;-57
2023/11/20 00:16:21;;;;;;;9.95;7.30;;;13.80;65.40;;;;;;345651;28;980;-58
2023/11/20 00:16:32;;;;;;;9.55;7.10;;;13.80;65.40;;;;;;345569;28;1298;-56
2023/11/20 00:16:43;;;;;;;9.77;6.80;;;13.80;65.40;;;;;;345530;28;1444;-59
2023/11/20 00:16:54;;;;;;;9.00;6.65;;;13.80;65.40;;;;;;345580;28;1141;-57
2023/11/20 00:17:04;;;;;;;9.52;7.00;;;13.80;65.40;;;;;;345642;28;1830;-57
2023/11/20 00:17:15;;;;;;;8.57;7.07;;;13.80;65.40;;;;;;345582;28;1000;-57
2023/11/20 00:17:26;;;;;;;8.63;7.32;;;13.80;65.40;;;;;;345625;28;1992;-58
2023/11/20 00:17:37;;;;;;;7.88;7.00;;;13.80;65.30;;;;;;345592;28;1078;-58
2023/11/20 00:17:47;;;;;;;7.90;6.88;;;13.80;65.30;;;;;;345599;28;1051;-57
2023/11/20 00:17:58;;;;;;;8.52;7.20;;;13.80;65.40;;;;;;345597;28;1075;-57
2023/11/20 00:18:09;;;;;;;9.43;7.80;;;13.80;65.40;;;;;;345594;28;1147;-55
2023/11/20 00:18:20;;;;;;;9.88;8.18;;;13.80;65.40;;;;;;345529;28;931;-56
2023/11/20 00:18:30;;;;;;;9.60;7.97;;;13.80;65.40;;;;;;345598;28;1083;-56
2023/11/20 00:18:41;;;;;;;9.00;7.55;;;13.80;65.30;;;;;;345631;28;912;-56
2023/11/20 00:18:52;;;;;;;8.77;7.37;;;13.80;65.20;;;;;;345554;28;1536;-57
2023/11/20 00:19:06;;;;;;;9.70;7.60;;;13.80;65.20;;;;;;345592;28;1454;-58
2023/11/20 00:19:17;;;;;;;10.38;7.53;;;13.80;65.20;;;;;;345573;28;1919;-58
2023/11/20 00:19:27;;;;;;;9.80;7.15;;;13.80;65.30;;;;;;345574;28;1051;-57
2023/11/20 00:19:38;;;;;;;9.20;6.95;;;13.80;65.20;;;;;;345712;28;823;-57
2023/11/20 00:19:50;;;;;;;8.80;6.97;;;13.80;65.20;;;;;;345704;28;877;-57
2023/11/20 00:20:01;;;;;;;8.75;6.93;;;13.80;65.20;;;;;;345520;28;1131;-56
2023/11/20 00:20:12;;;;;;;8.65;7.15;;;13.80;65.20;;;;;;345633;28;1192;-56
2023/11/20 00:20:23;;;;;;;9.18;7.15;;;13.80;65.20;;;;;;345556;28;1123;-57
2023/11/20 00:20:36;;;;;;;9.88;7.43;;;13.80;65.20;;;;;;345546;28;1058;-57
2023/11/20 00:20:46;;;;;;;10.77;7.05;;;13.80;65.20;;;;;;345612;28;1856;-58
2023/11/20 00:20:57;;;;;;;11.38;7.20;;;13.80;65.20;;;;;;345598;28;1338;-57
2023/11/20 00:21:08;;;;;;;10.98;7.25;;;13.80;65.30;;;;;;345555;28;985;-57
2023/11/20 00:21:18;;;;;;;10.48;7.55;;;13.80;65.20;;;;;;345707;28;987;-57
2023/11/20 00:21:31;;;;;;;9.20;7.23;;;13.80;65.20;;;;;;345665;28;1019;-57
2023/11/20 00:21:42;;;;;;;9.35;7.28;;;13.80;65.20;;;;;;345541;28;1032;-58
2023/11/20 00:21:53;;;;;;;9.40;7.18;;;13.80;65.10;;;;;;345584;28;960;-57
2023/11/20 00:22:04;;;;;;;9.18;7.22;;;13.80;65.20;;;;;;345531;28;1507;-57
2023/11/20 00:22:15;;;;;;;8.45;7.32;;;13.80;65.10;;;;;;345591;28;1015;-57
2023/11/20 00:22:26;;;;;;;8.95;7.47;;;13.80;65.10;;;;;;345598;28;1032;-57
2023/11/20 00:22:36;;;;;;;9.02;7.30;;;13.80;65.20;;;;;;345591;28;1064;-56
2023/11/20 00:22:47;;;;;;;8.85;7.32;;;13.80;65.20;;;;;;345583;28;1183;-56
2023/11/20 00:22:58;;;;;;;8.03;6.97;;;13.80;65.20;;;;;;345610;28;948;-57
2023/11/20 00:23:08;;;;;;;8.60;7.15;;;13.80;65.20;;;;;;345626;28;1217;-57
2023/11/20 00:23:19;;;;;;;8.68;7.00;;;13.80;65.30;;;;;;345549;28;1056;-58
2023/11/20 00:23:30;;;;;;;9.10;7.25;;;13.80;65.20;;;;;;345572;28;1415;-57
2023/11/20 00:23:41;;;;;;;8.50;7.18;;;13.80;65.20;;;;;;345557;28;1908;-56
2023/11/20 00:23:52;;;;;;;8.97;7.10;;;13.80;65.20;;;;;;345476;28;1296;-57
2023/11/20 00:24:02;;;;;;;8.65;6.95;;;13.80;65.20;;;;;;345581;28;1012;-57
2023/11/20 00:24:13;;;;;;;8.50;7.00;;;13.80;65.20;;;;;;345633;28;1043;-55
2023/11/20 00:24:24;;;;;;;7.93;6.90;;;13.80;65.30;;;;;;345470;28;1103;-57
2023/11/20 00:24:34;;;;;;;8.67;7.03;;;13.80;65.20;;;;;;345637;28;916;-56
2023/11/20 00:24:45;;;;;;;9.85;7.13;;;13.80;65.20;;;;;;345561;28;989;-57
2023/11/20 00:24:56;;;;;;;11.25;7.60;;;13.80;65.20;;;;;;345474;28;1186;-59
2023/11/20 00:25:07;;;;;;;10.98;7.45;;;13.80;65.20;;;;;;345593;28;1087;-59
2023/11/20 00:25:18;;;;;;;10.43;7.40;;;13.80;65.20;;;;;;345620;28;1119;-58
2023/11/20 00:25:28;;;;;;;10.55;7.53;;;13.80;65.20;;;;;;345542;28;939;-57
2023/11/20 00:25:39;;;;;;;11.30;7.80;;;13.80;65.10;;;;;;345637;28;1007;-57
2023/11/20 00:25:50;;;;;;;12.15;7.72;;;13.80;65.10;;;;;;345629;28;1047;-57
2023/11/20 00:26:01;;;;;;;11.48;7.53;;;13.80;65.10;;;;;;345523;28;1830;-57
2023/11/20 00:26:14;;;;;;;9.57;7.40;;;13.80;65.10;;;;;;345631;28;1047;-57
2023/11/20 00:26:25;;;;;;;8.30;7.07;;;13.80;65.10;;;;;;345593;28;1063;-58
2023/11/20 00:26:37;;;;;;;8.45;7.20;;;13.80;65.20;;;;;;345560;28;1012;-57
2023/11/20 00:26:47;;;;;;;9.05;7.47;;;13.80;65.10;;;;;;345619;28;1062;-57
2023/11/20 00:26:58;;;;;;;9.75;7.50;;;13.80;65.20;;;;;;345645;28;968;-56
2023/11/20 00:27:09;;;;;;;10.27;7.37;;;13.70;65.20;;;;;;345584;28;1017;-57
2023/11/20 00:27:20;;;;;;;10.02;7.50;;;13.80;65.30;;;;;;345485;28;1123;-57
2023/11/20 00:27:31;;;;;;;10.13;7.47;;;13.80;65.20;;;;;;345599;28;1847;-59
2023/11/20 00:27:41;;;;;;;10.00;7.30;;;13.80;65.20;;;;;;345571;28;1099;-57
2023/11/20 00:27:52;;;;;;;9.60;6.90;;;13.80;65.30;;;;;;345672;28;1023;-57
2023/11/20 00:28:03;;;;;;;8.93;6.90;;;13.80;65.30;;;;;;345547;28;1176;-57
2023/11/20 00:28:14;;;;;;;8.77;7.10;;;13.80;65.30;;;;;;345606;28;1119;-57
2023/11/20 00:28:24;;;;;;;9.40;7.47;;;13.80;65.40;;;;;;345594;28;1099;-58
2023/11/20 00:28:35;;;;;;;10.13;7.43;;;13.70;65.40;;;;;;345585;28;980;-58
2023/11/20 00:28:46;;;;;;;10.35;7.60;;;13.70;65.40;;;;;;345494;28;1878;-56
2023/11/20 00:28:58;;;;;;;9.43;7.15;;;13.70;65.40;;;;;;345572;28;872;-56
2023/11/20 00:29:09;;;;;;;9.80;7.25;;;13.70;65.40;;;;;;345601;28;1194;-55
2023/11/20 00:29:20;;;;;;;10.20;7.13;;;13.80;65.40;;;;;;345591;28;1100;-57
2023/11/20 00:29:31;;;;;;;10.02;7.47;;;13.70;65.40;;;;;;345491;28;1020;-57
2023/11/20 00:29:42;;;;;;;9.45;7.30;;;13.80;65.40;;;;;;345598;28;960;-58
2023/11/20 00:29:53;;;;;;;9.02;7.40;;;13.70;65.40;;;;;;345604;28;1127;-56
2023/11/20 00:30:05;;;;;;;8.60;7.25;;;13.70;65.40;;;;;;345583;28;1095;-58
2023/11/20 00:30:16;;;;;;;8.52;7.22;;;13.70;65.40;;;;;;345493;28;1127;-58
2023/11/20 00:30:26;;;;;;;8.88;7.32;;;13.70;65.40;;;;;;345572;28;976;-59
2023/11/20 00:30:37;;;;;;;8.70;7.30;;;13.70;65.40;;;;;;345543;28;1107;-56
2023/11/20 00:30:48;;;;;;;8.53;7.47;;;13.80;65.40;;;;;;345588;28;1091;-57
2023/11/20 00:30:58;;;;;;;8.90;7.40;;;13.80;65.50;;;;;;345492;28;947;-57
2023/11/20 00:31:15;;;;;;;8.63;7.32;;;13.70;65.50;;;;;;345606;28;1020;-56
2023/11/20 00:31:26;;;;;;;7.90;6.90;;;13.70;65.60;;;;;;345658;28;881;-56
2023/11/20 00:31:37;;;;;;;9.07;7.33;;;13.70;65.50;;;;;;345552;28;1067;-57
2023/11/20 00:31:47;;;;;;;9.88;7.47;;;13.70;65.50;;;;;;345549;28;1046;-57
2023/11/20 00:31:58;;;;;;;9.90;7.55;;;13.70;65.50;;;;;;345652;28;814;-58
2023/11/20 00:32:09;;;;;;;8.80;7.05;;;13.70;65.50;;;;;;345560;28;1060;-58
2023/11/20 00:32:19;;;;;;;8.17;7.10;;;13.70;65.50;;;;;;345592;28;984;-56
2023/11/20 00:32:30;;;;;;;9.30;7.20;;;13.70;65.50;;;;;;345527;28;1106;-58
2023/11/20 00:32:41;;;;;;;9.43;7.13;;;13.70;65.50;;;;;;345588;28;1063;-59
2023/11/20 00:32:52;;;;;;;9.30;7.20;;;13.70;65.40;;;;;;345597;28;1066;-57
2023/11/20 00:33:03;;;;;;;10.02;6.95;;;13.70;65.40;;;;;;345533;28;1091;-57
2023/11/20 00:33:14;;;;;;;10.25;7.18;;;13.70;65.50;;;;;;345556;28;992;-58
2023/11/20 00:33:24;;;;;;;10.50;7.43;;;13.70;65.50;;;;;;345534;28;1150;-57
2023/11/20 00:33:35;;;;;;;10.10;7.73;;;13.70;65.50;;;;;;345568;28;1003;-58
2023/11/20 00:33:46;;;;;;;11.05;7.80;;;13.70;65.50;;;;;;345586;28;956;-57
2023/11/20 00:33:57;;;;;;;10.23;7.55;;;13.70;65.50;;;;;;345524;28;1169;-56
2023/11/20 00:34:08;;;;;;;8.85;7.25;;;13.70;65.50;;;;;;345579;28;968;-57
2023/11/20 00:34:19;;;;;;;9.02;7.30;;;13.80;65.50;;;;;;345607;28;1083;-56
2023/11/20 00:34:29;;;;;;;9.68;7.47;;;13.70;65.50;;;;;;345669;28;983;-57
2023/11/20 00:34:40;;;;;;;9.83;7.90;;;13.70;65.50;;;;;;345486;28;1004;-57
2023/11/20 00:34:51;;;;;;;9.23;7.70;;;13.80;65.50;;;;;;345564;28;1123;-57
2023/11/20 00:35:02;;;;;;;8.90;7.38;;;13.80;65.40;;;;;;345522;28;976;-57
2023/11/20 00:35:16;;;;;;;9.80;7.20;;;13.80;65.40;;;;;;345617;28;1032;-57
2023/11/20 00:35:26;;;;;;;9.55;7.20;;;13.70;65.40;;;;;;345530;28;1139;-57
2023/11/20 00:35:37;;;;;;;8.98;7.05;;;13.70;65.40;;;;;;345648;28;1086;-56
2023/11/20 00:35:48;;;;;;;9.50;7.10;;;13.70;65.40;;;;;;345540;28;1107;-57
2023/11/20 00:35:58;;;;;;;9.87;7.37;;;13.70;65.40;;;;;;345553;28;968;-57
2023/11/20 00:36:09;;;;;;;9.43;7.30;;;13.70;65.30;;;;;;345600;28;1055;-58
2023/11/20 00:36:20;;;;;;;9.40;7.40;;;13.70;65.30;;;;;;345584;28;1775;-57
2023/11/20 00:36:31;;;;;;;9.10;7.28;;;13.70;65.30;;;;;;345647;28;833;-57
2023/11/20 00:36:43;;;;;;;8.93;7.55;;;13.70;65.30;;;;;;345624;28;1043;-58
2023/11/20 00:36:53;;;;;;;9.27;7.65;;;13.70;65.30;;;;;;345540;28;1031;-57
2023/11/20 00:37:04;;;;;;;9.27;7.68;;;13.70;65.20;;;;;;345577;28;1031;-59
2023/11/20 00:37:16;;;;;;;10.07;7.75;;;13.70;65.20;;;;;;345645;28;904;-58
2023/11/20 00:37:27;;;;;;;9.50;7.43;;;13.70;65.20;;;;;;345567;28;1202;-56
2023/11/20 00:37:38;;;;;;;9.07;7.18;;;13.70;65.20;;;;;;345536;28;1115;-56
2023/11/20 00:37:48;;;;;;;8.55;6.78;;;13.70;65.30;;;;;;345601;28;799;-57
2023/11/20 00:37:59;;;;;;;8.70;7.03;;;13.70;65.40;;;;;;345634;28;1076;-57
2023/11/20 00:38:10;;;;;;;8.70;7.20;;;13.70;65.30;;;;;;345575;28;885;-57
2023/11/20 00:38:20;;;;;;;9.13;7.65;;;13.70;65.30;;;;;;345474;28;1046;-56
2023/11/20 00:38:31;;;;;;;8.63;7.35;;;13.70;65.30;;;;;;345612;28;1091;-57
2023/11/20 00:38:42;;;;;;;9.13;7.17;;;13.70;65.30;;;;;;345570;28;821;-56
2023/11/20 00:38:53;;;;;;;9.65;7.15;;;13.70;65.30;;;;;;345570;28;1028;-58
2023/11/20 00:39:04;;;;;;;9.85;7.38;;;13.70;65.30;;;;;;345491;28;1155;-57
2023/11/20 00:39:15;;;;;;;9.80;7.40;;;13.70;65.40;;;;;;345471;28;1970;-56
2023/11/20 00:39:26;;;;;;;10.35;7.50;;;13.70;65.40;;;;;;345593;28;889;-56
2023/11/20 00:39:37;;;;;;;10.57;7.40;;;13.70;65.40;;;;;;345647;28;952;-57
2023/11/20 00:39:47;;;;;;;9.88;7.60;;;13.70;65.50;;;;;;345450;28;1158;-58
2023/11/20 00:39:58;;;;;;;9.25;7.97;;;13.70;65.50;;;;;;345554;28;1051;-56
2023/11/20 00:40:11;;;;;;;8.70;7.70;;;13.70;65.50;;;;;;345577;28;988;-56
2023/11/20 00:40:22;;;;;;;8.10;7.22;;;13.70;65.60;;;;;;345607;28;1043;-56
2023/11/20 00:40:33;;;;;;;8.60;6.95;;;13.70;65.60;;;;;;345486;28;1193;-57
2023/11/20 00:40:43;;;;;;;9.23;7.10;;;13.70;65.60;;;;;;345597;28;1008;-57
2023/11/20 00:40:54;;;;;;;9.07;7.07;;;13.70;65.60;;;;;;345581;28;1016;-57
2023/11/20 00:41:05;;;;;;;9.32;7.10;;;13.70;65.60;;;;;;345558;28;1038;-57
2023/11/20 00:41:15;;;;;;;9.75;7.65;;;13.70;65.60;;;;;;345500;28;1062;-56
2023/11/20 00:41:30;;;;;;;10.20;8.13;;;13.70;65.70;;;;;;345638;28;1011;-56
2023/11/20 00:41:41;;;;;;;9.95;8.10;;;13.70;65.60;;;;;;345581;28;1131;-57
2023/11/20 00:41:52;;;;;;;10.52;7.63;;;13.70;65.70;;;;;;345603;28;1088;-57
2023/11/20 00:42:03;;;;;;;10.45;7.43;;;13.70;65.80;;;;;;345539;28;1049;-59
2023/11/20 00:42:14;;;;;;;10.60;7.53;;;13.70;65.80;;;;;;345644;28;969;-58
2023/11/20 00:42:25;;;;;;;10.25;7.95;;;13.70;65.80;;;;;;345582;28;1429;-57
2023/11/20 00:42:36;;;;;;;10.27;8.00;;;13.70;65.70;;;;;;345528;28;1170;-56
2023/11/20 00:42:46;;;;;;;10.90;7.93;;;13.70;65.70;;;;;;345526;28;942;-57
2023/11/20 00:42:57;;;;;;;10.75;7.85;;;13.70;65.60;;;;;;345518;28;1079;-57
2023/11/20 00:43:08;;;;;;;10.80;7.53;;;13.70;65.70;;;;;;345320;28;1157;-57
2023/11/20 00:43:18;;;;;;;9.93;7.32;;;13.70;65.60;;;;;;345389;28;1000;-58
2023/11/20 00:43:31;;;;;;;9.95;7.40;;;13.70;65.70;;;;;;345368;28;1003;-56
2023/11/20 00:43:41;;;;;;;10.30;7.80;;;13.70;65.70;;;;;;345513;28;829;-58
2023/11/20 00:43:52;;;;;;;10.45;7.85;;;13.70;65.60;;;;;;345543;28;979;-58
2023/11/20 00:44:03;;;;;;;10.82;7.60;;;13.70;65.60;;;;;;345560;28;1099;-58
2023/11/20 00:44:14;;;;;;;10.87;7.73;;;13.70;65.70;;;;;;345538;28;888;-57
2023/11/20 00:44:24;;;;;;;9.88;7.50;;;13.70;65.70;;;;;;345578;28;1035;-58
2023/11/20 00:44:36;;;;;;;9.55;7.47;;;13.70;65.70;;;;;;345631;28;1027;-57
2023/11/20 00:44:47;;;;;;;9.23;7.57;;;13.70;65.70;;;;;;345616;28;984;-56
2023/11/20 00:44:57;;;;;;;9.60;7.90;;;13.70;65.80;;;;;;345530;28;940;-56
2023/11/20 00:45:08;;;;;;;9.38;8.00;;;13.70;65.70;;;;;;345510;28;1420;-57
2023/11/20 00:45:19;;;;;;;10.63;7.90;;;13.70;65.70;;;;;;345556;28;1130;-57
2023/11/20 00:45:30;;;;;;;10.98;7.63;;;13.70;65.70;;;;;;345588;28;834;-56
2023/11/20 00:45:40;;;;;;;10.50;7.60;;;13.70;65.80;;;;;;345439;28;1539;-57
2023/11/20 00:45:51;;;;;;;9.80;7.70;;;13.70;65.70;;;;;;345584;28;1095;-57
2023/11/20 00:46:02;;;;;;;10.07;7.85;;;13.70;65.70;;;;;;345630;28;1066;-56
2023/11/20 00:46:16;;;;;;;9.82;7.93;;;13.70;65.80;;;;;;345606;28;1131;-57
2023/11/20 00:46:27;;;;;;;10.95;7.97;;;13.70;65.80;;;;;;345507;28;991;-57
2023/11/20 00:46:37;;;;;;;11.30;8.23;;;13.70;65.70;;;;;;345573;28;1071;-58
2023/11/20 00:46:48;;;;;;;11.13;8.27;;;13.70;65.70;;;;;;345556;28;1024;-57
2023/11/20 00:46:59;;;;;;;10.97;8.17;;;13.70;65.70;;;;;;345592;28;1079;-58
2023/11/20 00:47:09;;;;;;;10.15;7.63;;;13.70;65.80;;;;;;345576;28;1054;-58
2023/11/20 00:47:20;;;;;;;9.68;7.22;;;13.70;65.80;;;;;;345568;28;1348;-57
2023/11/20 00:47:31;;;;;;;8.60;7.22;;;13.70;65.80;;;;;;345601;28;954;-57
2023/11/20 00:47:42;;;;;;;8.77;7.80;;;13.70;65.70;;;;;;345503;28;1516;-57
2023/11/20 00:47:53;;;;;;;9.35;7.90;;;13.70;65.70;;;;;;345470;28;1012;-57
2023/11/20 00:48:03;;;;;;;10.63;7.70;;;13.70;65.70;;;;;;345624;28;1412;-57
2023/11/20 00:48:14;;;;;;;11.00;7.35;;;13.70;65.70;;;;;;345530;28;1119;-57
2023/11/20 00:48:25;;;;;;;12.23;7.50;;;13.70;65.70;;;;;;345563;28;992;-56
2023/11/20 00:48:36;;;;;;;10.73;7.60;;;13.70;65.70;;;;;;345529;28;1083;-56
2023/11/20 00:48:46;;;;;;;11.80;8.02;;;13.70;65.60;;;;;;345606;28;980;-56
2023/11/20 00:48:57;;;;;;;10.75;8.30;;;13.70;65.60;;;;;;345537;28;1342;-59
2023/11/20 00:49:08;;;;;;;10.65;8.05;;;13.70;65.60;;;;;;345526;28;992;-57
2023/11/20 00:49:19;;;;;;;10.15;7.70;;;13.70;65.60;;;;;;345526;28;1066;-58
2023/11/20 00:49:29;;;;;;;9.47;7.40;;;13.70;65.60;;;;;;345527;28;1095;-57
2023/11/20 00:49:40;;;;;;;9.38;7.40;;;13.70;65.70;;;;;;345574;28;841;-56
2023/11/20 00:49:51;;;;;;;9.15;7.45;;;13.70;65.60;;;;;;345564;28;1000;-56
2023/11/20 00:50:01;;;;;;;8.73;7.50;;;13.70;65.70;;;;;;345449;28;1139;-55
2023/11/20 00:50:12;;;;;;;8.60;7.53;;;13.70;65.70;;;;;;345573;28;1032;-57
2023/11/20 00:50:23;;;;;;;9.35;7.90;;;13.70;65.70;;;;;;345547;28;1335;-56
2023/11/20 00:50:33;;;;;;;10.45;7.88;;;13.70;65.60;;;;;;345550;28;838;-58
2023/11/20 00:50:44;;;;;;;10.55;7.70;;;13.70;65.60;;;;;;345506;28;901;-59
2023/11/20 00:50:56;;;;;;;9.37;7.60;;;13.70;65.70;;;;;;345542;28;1028;-56
2023/11/20 00:51:07;;;;;;;9.80;7.20;;;13.70;65.70;;;;;;345616;28;1043;-57
2023/11/20 00:51:18;;;;;;;10.93;7.40;;;13.70;65.70;;;;;;345601;28;1083;-57
2023/11/20 00:51:32;;;;;;;11.07;7.47;;;13.70;65.70;;;;;;345516;28;1302;-57
2023/11/20 00:51:43;;;;;;;9.82;7.57;;;13.70;65.70;;;;;;345519;28;1123;-57
2023/11/20 00:51:53;;;;;;;9.15;7.57;;;13.70;65.60;;;;;;345561;28;888;-58
2023/11/20 00:52:04;;;;;;;11.38;7.97;;;13.70;65.60;;;;;;345566;28;1000;-56
2023/11/20 00:52:15;;;;;;;12.00;8.02;;;13.70;65.60;;;;;;345476;28;1166;-57
2023/11/20 00:52:26;;;;;;;11.23;7.60;;;13.70;65.60;;;;;;345547;28;782;-56
2023/11/20 00:52:36;;;;;;;9.35;7.28;;;13.70;65.60;;;;;;345617;28;829;-57
2023/11/20 00:52:47;;;;;;;9.05;7.22;;;13.70;65.60;;;;;;345455;28;1012;-57
2023/11/20 00:52:59;;;;;;;9.32;7.43;;;13.70;65.70;;;;;;345555;28;1816;-56
2023/11/20 00:53:09;;;;;;;9.70;7.57;;;13.60;65.70;;;;;;345592;28;1012;-58
2023/11/20 00:53:21;;;;;;;9.27;7.68;;;13.70;65.60;;;;;;345513;28;996;-56
2023/11/20 00:53:31;;;;;;;9.35;8.20;;;13.70;65.60;;;;;;345619;28;912;-56
2023/11/20 00:53:42;;;;;;;10.27;8.23;;;13.70;65.60;;;;;;345488;28;1251;-57
2023/11/20 00:53:53;;;;;;;10.05;8.13;;;13.70;65.50;;;;;;345453;28;1344;-57
2023/11/20 00:54:04;;;;;;;9.73;7.72;;;13.70;65.60;;;;;;345640;28;865;-57
2023/11/20 00:54:14;;;;;;;8.77;7.75;;;13.70;65.70;;;;;;345608;28;987;-57
2023/11/20 00:54:25;;;;;;;9.17;7.67;;;13.60;65.80;;;;;;345506;28;974;-55
2023/11/20 00:54:36;;;;;;;9.27;7.50;;;13.70;65.80;;;;;;345497;28;1091;-60
2023/11/20 00:54:46;;;;;;;9.50;7.47;;;13.70;65.80;;;;;;345637;28;865;-57
2023/11/20 00:55:00;;;;;;;9.35;7.53;;;13.60;65.80;;;;;;345552;28;1109;-57
2023/11/20 00:55:12;;;;;;;9.20;7.45;;;13.60;65.80;;;;;;345552;28;1059;-58
2023/11/20 00:55:23;;;;;;;9.18;7.38;;;13.60;65.80;;;;;;345557;28;1023;-57
2023/11/20 00:55:34;;;;;;;9.07;7.50;;;13.60;65.80;;;;;;345542;28;928;-58
2023/11/20 00:55:44;;;;;;;9.10;7.80;;;13.60;65.70;;;;;;345576;28;1047;-56
2023/11/20 00:55:55;;;;;;;8.68;7.70;;;13.70;65.70;;;;;;345534;28;1127;-56
2023/11/20 00:56:06;;;;;;;8.87;7.80;;;13.60;65.70;;;;;;345471;28;918;-57
2023/11/20 00:56:20;;;;;;;8.98;7.57;;;13.60;65.80;;;;;;345512;28;1783;-59
2023/11/20 00:56:31;;;;;;;11.13;7.90;;;13.60;65.70;;;;;;345620;28;841;-58
2023/11/20 00:56:41;;;;;;;12.02;7.68;;;13.60;65.70;;;;;;345470;28;830;-57
2023/11/20 00:56:52;;;;;;;12.43;7.70;;;13.60;65.70;;;;;;345566;28;1046;-59
2023/11/20 00:57:03;;;;;;;11.60;7.53;;;13.60;65.70;;;;;;345511;28;1639;-57
2023/11/20 00:57:14;;;;;;;10.70;7.67;;;13.60;65.70;;;;;;345578;28;1057;-56
2023/11/20 00:57:25;;;;;;;10.22;7.48;;;13.70;65.60;;;;;;345590;28;980;-58
2023/11/20 00:57:37;;;;;;;9.88;7.63;;;13.60;65.60;;;;;;345485;28;1107;-57
2023/11/20 00:57:48;;;;;;;9.57;7.60;;;13.60;65.50;;;;;;345623;28;980;-57
2023/11/20 00:57:59;;;;;;;9.05;7.13;;;13.60;65.60;;;;;;345593;28;992;-58
2023/11/20 00:58:10;;;;;;;9.88;7.45;;;13.60;65.60;;;;;;345578;28;1023;-57
2023/11/20 00:58:20;;;;;;;9.57;7.78;;;13.60;65.60;;;;;;345598;28;1723;-58
2023/11/20 00:58:31;;;;;;;9.67;7.83;;;13.60;65.60;;;;;;345515;28;1032;-55
2023/11/20 00:58:42;;;;;;;9.15;7.47;;;13.60;65.50;;;;;;345575;28;873;-57
2023/11/20 00:58:52;;;;;;;9.65;7.40;;;13.60;65.50;;;;;;345394;28;1705;-56